createdAt,value
2018-12-21T00:01:32.968Z,100626.95
2018-12-21T00:04:02.873Z,100625.56
2018-12-21T00:06:31.382Z,100621.45
2018-12-21T00:08:59.863Z,100622.47
2018-12-21T00:11:28.367Z,100613.09
2018-12-21T00:13:56.882Z,100602.85
2018-12-21T00:16:25.440Z,100604.62
2018-12-21T00:18:54.243Z,100601.26
2018-12-21T00:21:22.758Z,100596.52
2018-12-21T00:23:51.252Z,100603.95
2018-12-21T00:26:19.784Z,100602.82
2018-12-21T00:28:48.237Z,100602.44
2018-12-21T00:31:22.783Z,100598.16
2018-12-21T00:33:56.583Z,100598.24
2018-12-21T00:36:30.106Z,100598.70
2018-12-21T00:39:04.726Z,100587.92
2018-12-21T00:41:32.337Z,100590.06
2018-12-21T00:44:35.995Z,100589.59
2018-12-21T00:47:19.600Z,100578.63
2018-12-21T00:49:48.212Z,100578.63
2018-12-21T00:52:16.947Z,100578.17
2018-12-21T00:54:45.597Z,100576.95
2018-12-21T00:57:15.031Z,100573.59
2018-12-21T00:59:43.554Z,100570.91
2018-12-21T01:02:12.039Z,100569.52
2018-12-21T01:04:40.672Z,100575.48
2018-12-21T01:07:09.370Z,100564.05
2018-12-21T01:09:38.520Z,100572.25
2018-12-21T01:12:09.540Z,100576.23
2018-12-21T01:14:38.203Z,100567.13
2018-12-21T01:17:06.876Z,100562.47
2018-12-21T01:19:35.593Z,100558.09
2018-12-21T01:22:06.992Z,100562.09
2018-12-21T01:24:35.508Z,100565.79
2018-12-21T01:27:06.797Z,100559.48
2018-12-21T01:29:35.493Z,100557.34
2018-12-21T01:32:06.047Z,100546.64
2018-12-21T01:34:34.522Z,100541.98
2018-12-21T01:37:04.551Z,100539.01
2018-12-21T01:39:33.209Z,100533.34
2018-12-21T01:42:03.199Z,100529.52
2018-12-21T01:44:31.727Z,100529.15
2018-12-21T01:47:00.252Z,100525.41
2018-12-21T01:49:28.910Z,100531.46
2018-12-21T01:51:57.543Z,100531.63
2018-12-21T01:54:26.019Z,100523.19
2018-12-21T01:56:54.896Z,100525.70
2018-12-21T01:59:23.490Z,100522.27
2018-12-21T02:01:51.978Z,100526.45
2018-12-21T02:04:20.470Z,100524.78
2018-12-21T02:06:48.959Z,100525.63
2018-12-21T02:09:17.457Z,100519.20
2018-12-21T02:11:46.107Z,100522.09
2018-12-21T02:14:14.815Z,100517.72
2018-12-21T02:16:43.519Z,100518.73
2018-12-21T02:19:12.060Z,100516.31
2018-12-21T02:21:40.681Z,100509.52
2018-12-21T02:24:09.193Z,100509.14
2018-12-21T02:26:37.727Z,100511.73
2018-12-21T02:29:06.207Z,100502.72
2018-12-21T02:31:34.775Z,100491.09
2018-12-21T02:34:05.104Z,100492.13
2018-12-21T02:36:33.635Z,100482.56
2018-12-21T02:39:05.611Z,100472.61
2018-12-21T02:41:34.649Z,100462.67
2018-12-21T02:44:05.671Z,100467.58
2018-12-21T02:46:34.758Z,100462.67
2018-12-21T02:49:04.199Z,100454.02
2018-12-21T02:51:32.660Z,100455.50
2018-12-21T02:54:04.494Z,100451.13
2018-12-21T02:56:33.067Z,100448.06
2018-12-21T02:59:02.728Z,100441.94
2018-12-21T03:01:31.227Z,100453.19
2018-12-21T03:03:59.704Z,100449.74
2018-12-21T03:06:28.167Z,100446.77
2018-12-21T03:08:56.661Z,100446.68
2018-12-21T03:11:26.661Z,100437.56
2018-12-21T03:13:55.212Z,100437.28
2018-12-21T03:16:23.809Z,100422.05
2018-12-21T03:18:52.329Z,100423.25
2018-12-21T03:21:20.827Z,100411.45
2018-12-21T03:23:49.355Z,100406.34
2018-12-21T03:26:17.892Z,100395.47
2018-12-21T03:28:46.460Z,100387.11
2018-12-21T03:31:15.267Z,100377.25
2018-12-21T03:33:45.152Z,100377.18
2018-12-21T03:36:13.683Z,100368.42
2018-12-21T03:38:42.177Z,100365.08
2018-12-21T03:41:10.759Z,100352.91
2018-12-21T03:43:39.358Z,100350.23
2018-12-21T03:46:07.982Z,100354.11
2018-12-21T03:48:36.477Z,100348.53
2018-12-21T03:51:05.535Z,100338.61
2018-12-21T03:53:34.007Z,100320.55
2018-12-21T03:56:07.428Z,100322.72
2018-12-21T03:58:35.958Z,100319.09
2018-12-21T04:01:07.421Z,100304.30
2018-12-21T04:03:35.955Z,100302.34
2018-12-21T04:06:05.449Z,100298.16
2018-12-21T04:08:33.942Z,100289.23
2018-12-21T04:11:03.716Z,100286.83
2018-12-21T04:13:32.297Z,100288.22
2018-12-21T04:16:00.984Z,100280.22
2018-12-21T04:18:29.541Z,100275.95
2018-12-21T04:20:58.021Z,100266.38
2018-12-21T04:23:26.714Z,100263.92
2018-12-21T04:25:55.292Z,100262.75
2018-12-21T04:28:23.795Z,100264.30
2018-12-21T04:30:52.328Z,100260.61
2018-12-21T04:33:20.833Z,100257.17
2018-12-21T04:35:49.571Z,100253.70
2018-12-21T04:38:18.051Z,100244.22
2018-12-21T04:40:46.911Z,100241.69
2018-12-21T04:43:15.395Z,100237.14
2018-12-21T04:45:43.940Z,100227.27
2018-12-21T04:48:12.442Z,100220.69
2018-12-21T04:50:41.489Z,100209.70
2018-12-21T04:53:09.974Z,100197.98
2018-12-21T04:55:38.885Z,100195.20
2018-12-21T04:58:07.435Z,100182.78
2018-12-21T05:00:35.907Z,100174.73
2018-12-21T05:03:05.376Z,100170.13
2018-12-21T05:05:33.882Z,100162.19
2018-12-21T05:08:04.646Z,100154.66
2018-12-21T05:10:33.137Z,100145.03
2018-12-21T05:13:03.545Z,100149.09
2018-12-21T05:15:32.833Z,100144.25
2018-12-21T05:18:02.858Z,100134.11
2018-12-21T05:20:31.859Z,100131.55
2018-12-21T05:23:00.373Z,100112.73
2018-12-21T05:25:29.189Z,100110.06
2018-12-21T05:27:57.683Z,100108.76
2018-12-21T05:30:26.223Z,100100.02
2018-12-21T05:32:54.697Z,100097.34
2018-12-21T05:35:23.315Z,100103.38
2018-12-21T05:37:51.787Z,100090.17
2018-12-21T05:40:20.353Z,100084.50
2018-12-21T05:42:49.007Z,100073.81
2018-12-21T05:45:17.494Z,100067.91
2018-12-21T05:47:46.262Z,100070.38
2018-12-21T05:50:14.854Z,100061.13
2018-12-21T05:52:43.334Z,100057.59
2018-12-21T05:55:11.827Z,100050.72
2018-12-21T05:57:40.481Z,100043.48
2018-12-21T06:00:10.369Z,100034.83
2018-12-21T06:02:38.878Z,100025.72
2018-12-21T06:05:08.049Z,100015.41
2018-12-21T06:07:36.509Z,100003.03
2018-12-21T06:10:05.871Z,100010.37
2018-12-21T06:12:34.492Z,100011.72
2018-12-21T06:15:04.904Z,100001.41
2018-12-21T06:17:33.540Z,99991.89
2018-12-21T06:20:05.440Z,99989.48
2018-12-21T06:22:33.903Z,99978.04
2018-12-21T06:25:03.716Z,99974.87
2018-12-21T06:27:32.593Z,99971.29
2018-12-21T06:30:03.124Z,99967.59
2018-12-21T06:32:31.630Z,99959.80
2018-12-21T06:35:00.304Z,99958.77
2018-12-21T06:37:28.777Z,99958.88
2018-12-21T06:39:57.612Z,99955.67
2018-12-21T06:42:29.593Z,99941.09
2018-12-21T06:44:58.087Z,99931.41
2018-12-21T06:47:26.642Z,99933.22
2018-12-21T06:49:55.238Z,99922.81
2018-12-21T06:52:23.787Z,99906.45
2018-12-21T06:54:52.319Z,99906.05
2018-12-21T06:57:21.013Z,99903.91
2018-12-21T06:59:53.414Z,99899.95
2018-12-21T07:02:22.685Z,99896.57
2018-12-21T07:04:52.194Z,99884.33
2018-12-21T07:07:21.707Z,99879.70
2018-12-21T07:09:50.529Z,99864.55
2018-12-21T07:12:20.299Z,99859.34
2018-12-21T07:14:48.811Z,99851.74
2018-12-21T07:17:17.614Z,99851.38
2018-12-21T07:19:46.059Z,99838.03
2018-12-21T07:22:15.320Z,99839.44
2018-12-21T07:24:43.793Z,99827.48
2018-12-21T07:27:14.590Z,99823.01
2018-12-21T07:29:43.051Z,99806.45
2018-12-21T07:32:11.545Z,99811.77
2018-12-21T07:34:41.464Z,99812.49
2018-12-21T07:37:10.044Z,99806.24
2018-12-21T07:39:38.552Z,99795.36
2018-12-21T07:42:08.449Z,99787.09
2018-12-21T07:44:36.954Z,99786.30
2018-12-21T07:47:06.086Z,99783.18
2018-12-21T07:49:35.793Z,99777.40
2018-12-21T07:52:06.157Z,99773.86
2018-12-21T07:54:34.642Z,99773.39
2018-12-21T07:57:04.520Z,99757.15
2018-12-21T07:59:33.074Z,99748.04
2018-12-21T08:02:02.690Z,99750.64
2018-12-21T08:04:31.871Z,99738.57
2018-12-21T08:07:00.453Z,99734.34
2018-12-21T08:09:28.954Z,99715.03
2018-12-21T08:11:57.448Z,99710.08
2018-12-21T08:14:27.562Z,99694.36
2018-12-21T08:16:56.118Z,99673.28
2018-12-21T08:19:24.618Z,99675.41
2018-12-21T08:21:53.123Z,99682.53
2018-12-21T08:24:21.794Z,99681.70
2018-12-21T08:26:50.287Z,99665.97
2018-12-21T08:29:18.790Z,99667.38
2018-12-21T08:31:47.374Z,99661.02
2018-12-21T08:34:15.934Z,99655.81
2018-12-21T08:36:45.051Z,99648.58
2018-12-21T08:39:13.551Z,99643.87
2018-12-21T08:41:42.046Z,99641.60
2018-12-21T08:44:10.667Z,99626.45
2018-12-21T08:46:39.290Z,99630.14
2018-12-21T08:49:07.772Z,99620.20
2018-12-21T08:51:36.388Z,99619.47
2018-12-21T08:54:05.932Z,99609.78
2018-12-21T08:56:34.960Z,99603.38
2018-12-21T08:59:07.222Z,99586.57
2018-12-21T09:01:38.717Z,99582.33
2018-12-21T09:04:07.641Z,99574.52
2018-12-21T09:06:36.127Z,99565.91
2018-12-21T09:09:07.162Z,99573.13
2018-12-21T09:11:35.722Z,99564.98
2018-12-21T09:14:07.142Z,99559.28
2018-12-21T09:16:35.891Z,99552.91
2018-12-21T09:19:05.989Z,99548.05
2018-12-21T09:21:34.466Z,99540.25
2018-12-21T09:24:04.477Z,99529.92
2018-12-21T09:26:32.959Z,99521.41
2018-12-21T09:29:03.560Z,99526.07
2018-12-21T09:31:32.136Z,99517.91
2018-12-21T09:34:00.767Z,99512.94
2018-12-21T09:36:31.000Z,99512.67
2018-12-21T09:38:59.504Z,99513.50
2018-12-21T09:41:28.325Z,99510.19
2018-12-21T09:43:57.844Z,99501.42
2018-12-21T09:46:26.401Z,99494.28
2018-12-21T09:48:55.195Z,99489.69
2018-12-21T09:51:23.670Z,99475.80
2018-12-21T09:53:52.153Z,99475.87
2018-12-21T09:56:20.656Z,99470.89
2018-12-21T09:58:49.141Z,99466.61
2018-12-21T10:01:17.662Z,99458.42
2018-12-21T10:03:46.971Z,99448.58
2018-12-21T10:06:15.679Z,99441.47
2018-12-21T10:08:44.646Z,99438.69
2018-12-21T10:11:13.127Z,99431.43
2018-12-21T10:13:41.723Z,99430.25
2018-12-21T10:16:10.269Z,99425.86
2018-12-21T10:18:38.991Z,99409.48
2018-12-21T10:21:07.503Z,99395.61
2018-12-21T10:23:36.120Z,99379.17
2018-12-21T10:26:05.452Z,99387.33
2018-12-21T10:28:33.919Z,99371.58
2018-12-21T10:31:03.443Z,99370.27
2018-12-21T10:33:31.932Z,99366.46
2018-12-21T10:36:00.403Z,99362.12
2018-12-21T10:38:29.359Z,99351.88
2018-12-21T10:40:57.823Z,99354.48
2018-12-21T10:43:26.286Z,99333.86
2018-12-21T10:45:54.757Z,99334.82
2018-12-21T10:48:23.264Z,99328.58
2018-12-21T10:50:51.746Z,99320.09
2018-12-21T10:53:20.223Z,99324.52
2018-12-21T10:55:48.748Z,99312.25
2018-12-21T10:58:17.236Z,99314.79
2018-12-21T11:00:45.758Z,99303.17
2018-12-21T11:03:14.655Z,99292.03
2018-12-21T11:05:43.137Z,99286.09
2018-12-21T11:08:11.745Z,99291.31
2018-12-21T11:10:40.467Z,99286.79
2018-12-21T11:13:09.919Z,99280.34
2018-12-21T11:15:38.391Z,99266.81
2018-12-21T11:18:06.933Z,99274.22
2018-12-21T11:20:35.475Z,99274.91
2018-12-21T11:23:05.781Z,99267.42
2018-12-21T11:25:34.527Z,99270.73
2018-12-21T11:28:07.620Z,99259.76
2018-12-21T11:30:37.269Z,99259.36
2018-12-21T11:33:06.863Z,99254.53
2018-12-21T11:35:35.368Z,99253.73
2018-12-21T11:38:06.098Z,99246.56
2018-12-21T11:40:34.584Z,99242.20
2018-12-21T11:43:05.352Z,99239.61
2018-12-21T11:45:33.845Z,99239.03
2018-12-21T11:48:04.379Z,99238.48
2018-12-21T11:50:34.082Z,99223.56
2018-12-21T11:53:06.313Z,99226.16
2018-12-21T11:55:34.938Z,99222.37
2018-12-21T11:58:05.950Z,99220.16
2018-12-21T12:00:35.455Z,99215.31
2018-12-21T12:03:05.714Z,99213.44
2018-12-21T12:05:34.433Z,99215.02
2018-12-21T12:08:04.565Z,99219.80
2018-12-21T12:10:33.251Z,99207.95
2018-12-21T12:13:03.578Z,99214.06
2018-12-21T12:15:32.148Z,99207.30
2018-12-21T12:18:06.575Z,99204.23
2018-12-21T12:20:35.402Z,99209.09
2018-12-21T12:23:05.437Z,99199.39
2018-12-21T12:25:34.071Z,99203.52
2018-12-21T12:28:03.871Z,99209.28
2018-12-21T12:30:33.608Z,99204.59
2018-12-21T12:33:04.398Z,99207.59
2018-12-21T12:35:32.863Z,99214.00
2018-12-21T12:38:06.288Z,99216.64
2018-12-21T12:40:34.765Z,99219.12
2018-12-21T12:43:05.927Z,99203.59
2018-12-21T12:45:34.938Z,99214.61
2018-12-21T12:48:05.307Z,99224.51
2018-12-21T12:50:33.784Z,99229.27
2018-12-21T12:53:05.024Z,99214.42
2018-12-21T12:55:33.584Z,99227.23
2018-12-21T12:58:04.206Z,99228.25
2018-12-21T13:00:32.787Z,99236.11
2018-12-21T13:03:03.631Z,99228.78
2018-12-21T13:05:32.123Z,99227.18
2018-12-21T13:08:00.602Z,99232.71
2018-12-21T13:10:29.216Z,99226.50
2018-12-21T13:12:58.202Z,99224.41
2018-12-21T13:15:26.679Z,99230.72
2018-12-21T13:17:55.291Z,99254.35
2018-12-21T13:20:24.078Z,99234.55
2018-12-21T13:22:52.765Z,99231.30
2018-12-21T13:25:21.422Z,99230.14
2018-12-21T13:27:50.137Z,99237.68
2018-12-21T13:30:18.835Z,99233.45
2018-12-21T13:32:47.342Z,99232.83
2018-12-21T13:35:15.905Z,99240.49
2018-12-21T13:37:44.840Z,99238.02
2018-12-21T13:40:13.534Z,99234.27
2018-12-21T13:42:42.327Z,99239.33
2018-12-21T13:45:11.538Z,99236.22
2018-12-21T13:47:40.262Z,99244.91
2018-12-21T13:50:13.626Z,99237.19
2018-12-21T13:52:42.206Z,99242.61
2018-12-21T13:55:10.664Z,99246.83
2018-12-21T13:57:39.252Z,99240.13
2018-12-21T14:00:10.091Z,99262.21
2018-12-21T14:02:38.944Z,99263.03
2018-12-21T14:05:08.342Z,99254.06
2018-12-21T14:07:36.910Z,99285.98
2018-12-21T14:10:09.982Z,99271.30
2018-12-21T14:12:38.502Z,99282.61
2018-12-21T14:15:08.148Z,99277.30
2018-12-21T14:17:36.663Z,99294.02
2018-12-21T14:20:09.963Z,99277.56
2018-12-21T14:22:38.687Z,99291.34
2018-12-21T14:25:08.279Z,99291.45
2018-12-21T14:27:36.794Z,99299.94
2018-12-21T14:30:07.774Z,99298.27
2018-12-21T14:32:36.287Z,99297.31
2018-12-21T14:35:06.865Z,99303.19
2018-12-21T14:37:35.406Z,99328.14
2018-12-21T14:40:06.151Z,99302.09
2018-12-21T14:42:34.715Z,99321.00
2018-12-21T14:45:04.808Z,99322.87
2018-12-21T14:47:33.420Z,99324.81
2018-12-21T14:50:03.894Z,99336.52
2018-12-21T14:52:32.394Z,99341.21
2018-12-21T14:55:00.863Z,99359.30
2018-12-21T14:57:29.368Z,99351.30
2018-12-21T14:59:57.896Z,99352.97
2018-12-21T15:02:26.473Z,99341.18
2018-12-21T15:04:54.984Z,99360.03
2018-12-21T15:07:23.657Z,99359.09
2018-12-21T15:09:52.423Z,99375.23
2018-12-21T15:12:20.995Z,99372.96
2018-12-21T15:14:49.497Z,99366.88
2018-12-21T15:17:26.691Z,99365.64
2018-12-21T15:19:55.245Z,99384.06
2018-12-21T15:22:23.824Z,99398.73
2018-12-21T15:24:52.411Z,99393.98
2018-12-21T15:27:21.719Z,99393.58
2018-12-21T15:29:50.204Z,99399.69
2018-12-21T15:32:19.048Z,99416.72
2018-12-21T15:34:47.492Z,99412.78
2018-12-21T15:37:16.044Z,99426.89
2018-12-21T15:39:44.669Z,99425.94
2018-12-21T15:42:13.342Z,99438.20
2018-12-21T15:44:42.710Z,99438.78
2018-12-21T15:47:11.433Z,99442.92
2018-12-21T15:49:40.078Z,99449.63
2018-12-21T15:52:08.787Z,99448.52
2018-12-21T15:54:37.551Z,99455.81
2018-12-21T15:57:06.440Z,99477.37
2018-12-21T15:59:34.939Z,99451.48
2018-12-21T16:02:05.884Z,99456.73
2018-12-21T16:04:34.375Z,99486.54
2018-12-21T16:07:05.348Z,99478.88
2018-12-21T16:09:33.863Z,99486.70
2018-12-21T16:12:06.794Z,99488.41
2018-12-21T16:14:36.703Z,99496.50
2018-12-21T16:17:06.383Z,99488.52
2018-12-21T16:19:34.906Z,99493.21
2018-12-21T16:22:05.985Z,99504.31
2018-12-21T16:24:34.730Z,99502.08
2018-12-21T16:27:04.409Z,99501.03
2018-12-21T16:29:32.911Z,99508.39
2018-12-21T16:32:08.354Z,99531.72
2018-12-21T16:34:36.993Z,99540.42
2018-12-21T16:37:05.813Z,99551.66
2018-12-21T16:39:37.871Z,99529.13
2018-12-21T16:42:06.634Z,99566.55
2018-12-21T16:44:35.320Z,99544.72
2018-12-21T16:47:05.253Z,99543.70
2018-12-21T16:49:33.809Z,99539.33
2018-12-21T16:52:03.991Z,99539.34
2018-12-21T16:54:36.589Z,99555.38
2018-12-21T16:57:05.574Z,99554.48
2018-12-21T16:59:34.156Z,99556.16
2018-12-21T17:02:05.125Z,99558.66
2018-12-21T17:04:35.559Z,99568.27
2018-12-21T17:07:05.337Z,99599.83
2018-12-21T17:09:33.854Z,99568.03
2018-12-21T17:12:03.845Z,99576.35
2018-12-21T17:14:32.495Z,99569.15
2018-12-21T17:17:00.974Z,99579.00
2018-12-21T17:19:29.498Z,99582.20
2018-12-21T17:21:58.250Z,99589.56
2018-12-21T17:24:26.711Z,99583.76
2018-12-21T17:26:55.442Z,99602.97
2018-12-21T17:29:23.990Z,99595.02
2018-12-21T17:31:52.624Z,99597.87
2018-12-21T17:34:21.162Z,99602.50
2018-12-21T17:36:49.683Z,99602.73
2018-12-21T17:39:18.293Z,99642.34
2018-12-21T17:41:46.826Z,99613.52
2018-12-21T17:44:15.613Z,99613.52
2018-12-21T17:46:44.391Z,99623.02
2018-12-21T17:49:12.874Z,99623.60
2018-12-21T17:51:41.704Z,99624.43
2018-12-21T17:54:10.432Z,99642.91
2018-12-21T17:56:39.766Z,99625.94
2018-12-21T17:59:08.280Z,99625.47
2018-12-21T18:01:38.366Z,99648.72
2018-12-21T18:04:13.095Z,99648.72
2018-12-21T18:06:41.575Z,99654.05
2018-12-21T18:09:10.209Z,99627.59
2018-12-21T18:11:38.704Z,99651.67
2018-12-21T18:14:07.411Z,99651.20
2018-12-21T18:16:35.873Z,99641.94
2018-12-21T18:19:05.357Z,99660.57
2018-12-21T18:21:56.561Z,99672.20
2018-12-21T18:24:25.831Z,99676.70
2018-12-21T18:26:54.284Z,99673.94
2018-12-21T18:29:22.971Z,99683.70
2018-12-21T18:31:59.546Z,99696.28
2018-12-21T18:34:32.528Z,99712.74
2018-12-21T18:37:03.446Z,99715.11
2018-12-21T18:39:31.995Z,99715.70
2018-12-21T18:42:00.479Z,99727.58
2018-12-21T18:44:29.009Z,99723.42
2018-12-21T18:46:57.497Z,99743.95
2018-12-21T18:49:26.260Z,99728.53
2018-12-21T18:51:54.748Z,99736.36
2018-12-21T18:54:23.240Z,99738.85
2018-12-21T18:56:58.202Z,99728.68
2018-12-21T18:59:26.775Z,99752.29
2018-12-21T19:01:55.271Z,99764.16
2018-12-21T19:04:23.817Z,99756.20
2018-12-21T19:06:52.335Z,99769.75
2018-12-21T19:09:20.932Z,99768.67
2018-12-21T19:11:49.476Z,99779.58
2018-12-21T19:14:18.062Z,99778.86
2018-12-21T19:16:46.562Z,99786.58
2018-12-21T19:19:15.086Z,99785.98
2018-12-21T19:21:44.588Z,99816.21
2018-12-21T19:24:13.089Z,99811.36
2018-12-21T19:26:41.619Z,99820.48
2018-12-21T19:29:10.364Z,99814.32
2018-12-21T19:31:38.963Z,99843.27
2018-12-21T19:34:07.506Z,99830.81
2018-12-21T19:36:36.043Z,99828.45
2018-12-21T19:39:10.399Z,99833.92
2018-12-21T19:41:38.945Z,99832.03
2018-12-21T19:44:07.452Z,99839.73
2018-12-21T19:46:35.962Z,99848.50
2018-12-21T19:49:05.200Z,99869.98
2018-12-21T19:51:33.755Z,99855.05
2018-12-21T19:54:04.220Z,99870.44
2018-12-21T19:57:17.667Z,99887.91
2018-12-21T19:59:46.342Z,99881.98
2018-12-21T20:02:14.890Z,99889.09
2018-12-21T20:04:43.428Z,99900.00
2018-12-21T20:07:11.933Z,99895.72
2018-12-21T20:09:40.564Z,99909.25
2018-12-21T20:12:09.382Z,99900.00
2018-12-21T20:14:39.282Z,99888.84
2018-12-21T20:17:07.980Z,99917.91
2018-12-21T20:19:36.502Z,99906.52
2018-12-21T20:22:05.172Z,99914.71
2018-12-21T20:24:36.365Z,99917.30
2018-12-21T20:27:14.092Z,99927.27
2018-12-21T20:29:43.344Z,99922.02
2018-12-21T20:32:11.894Z,99927.72
2018-12-21T20:34:40.431Z,99923.44
2018-12-21T20:37:09.171Z,99939.20
2018-12-21T20:39:42.229Z,99965.74
2018-12-21T20:42:10.964Z,99984.55
2018-12-21T20:44:39.699Z,99960.82
2018-12-21T20:47:08.305Z,99982.27
2018-12-21T20:49:37.416Z,99986.25
2018-12-21T20:52:09.828Z,100011.84
2018-12-21T20:54:38.402Z,100010.71
2018-12-21T20:57:09.915Z,100023.80
2018-12-21T20:59:39.176Z,100024.53
2018-12-21T21:02:07.995Z,100028.89
2018-12-21T21:04:36.626Z,100024.20
2018-12-21T21:07:05.985Z,100032.60
2018-12-21T21:09:34.508Z,100043.13
2018-12-21T21:12:05.083Z,100036.59
2018-12-21T21:14:34.405Z,100047.00
2018-12-21T21:17:05.655Z,100042.00
2018-12-21T21:19:37.520Z,100049.19
2018-12-21T21:22:07.554Z,100063.14
2018-12-21T21:24:38.203Z,100069.39
2018-12-21T21:27:06.708Z,100075.06
2018-12-21T21:29:35.256Z,100081.84
2018-12-21T21:32:05.363Z,100096.07
2018-12-21T21:34:33.868Z,100088.19
2018-12-21T21:37:04.644Z,100096.38
2018-12-21T21:39:33.124Z,100095.64
2018-12-21T21:42:04.488Z,100108.83
2018-12-21T21:44:33.081Z,100103.72
2018-12-21T21:47:03.312Z,100113.20
2018-12-21T21:49:32.167Z,100115.17
2018-12-21T21:52:00.698Z,100125.48
2018-12-21T21:54:29.872Z,100122.78
2018-12-21T21:56:58.618Z,100134.97
2018-12-21T21:59:27.116Z,100131.06
2018-12-21T22:01:55.858Z,100137.77
2018-12-21T22:04:24.648Z,100138.27
2018-12-21T22:06:53.248Z,100143.48
2018-12-21T22:09:23.788Z,100145.81
2018-12-21T22:11:52.427Z,100147.95
2018-12-21T22:14:20.938Z,100149.16
2018-12-21T22:16:50.324Z,100159.21
2018-12-21T22:19:18.873Z,100166.55
2018-12-21T22:21:47.629Z,100162.65
2018-12-21T22:24:16.132Z,100179.77
2018-12-21T22:26:44.587Z,100184.44
2018-12-21T22:29:14.297Z,100190.41
2018-12-21T22:31:43.356Z,100197.84
2018-12-21T22:34:12.040Z,100194.50
2018-12-21T22:36:40.692Z,100195.56
2018-12-21T22:39:09.148Z,100206.08
2018-12-21T22:41:37.654Z,100208.88
2018-12-21T22:44:06.204Z,100212.50
2018-12-21T22:46:34.856Z,100211.38
2018-12-21T22:49:04.173Z,100215.28
2018-12-21T22:51:32.684Z,100215.84
2018-12-21T22:54:03.938Z,100220.12
2018-12-21T22:56:32.551Z,100224.13
2018-12-21T22:59:03.320Z,100231.93
2018-12-21T23:01:31.863Z,100234.81
2018-12-21T23:04:00.401Z,100237.05
2018-12-21T23:06:28.920Z,100234.81
2018-12-21T23:08:57.403Z,100245.88
2018-12-21T23:11:26.070Z,100245.13
2018-12-21T23:13:54.574Z,100246.89
2018-12-21T23:16:23.027Z,100243.92
2018-12-21T23:18:51.581Z,100236.76
2018-12-21T23:21:20.178Z,100241.47
2018-12-21T23:23:48.663Z,100237.56
2018-12-21T23:26:17.143Z,100238.58
2018-12-21T23:28:45.628Z,100241.00
2018-12-21T23:31:14.235Z,100245.19
2018-12-21T23:33:42.887Z,100241.47
2018-12-21T23:36:11.346Z,100243.73
2018-12-21T23:38:39.834Z,100240.76
2018-12-21T23:41:08.310Z,100233.46
2018-12-21T23:43:43.300Z,100236.48
2018-12-21T23:46:07.345Z,100242.02
2018-12-21T23:48:35.889Z,100231.42
2018-12-21T23:51:05.596Z,100227.05
2018-12-21T23:53:34.106Z,100233.66
2018-12-21T23:56:11.796Z,100222.12
2018-12-21T23:58:35.060Z,100226.47
